Time;durP1;ratioP1;P1;durP2;ratioP2;P2;SDS_P1;SDS_P2;PMS_P1;PMS_P2;Temp;Humidity;BMP_temperature;BMP_pressure;BME280_temperature;BME280_humidity;BME280_pressure;Samples;Min_cycle;Max_cycle;Signal;HPM_P1;HPM_P2
2023/12/25 00:01:21;;;;;;;;;;;;;;;2.39;100.00;95181.22;5114711;28;1615;-58
2023/12/25 00:04:07;;;;;;;;;;;;;;;2.39;99.95;95203.22;5114635;28;1536;-58
2023/12/25 00:06:52;;;;;;;;;;;;;;;2.27;100.00;95210.19;5114432;28;1717;-58
2023/12/25 00:09:38;;;;;;;;;;;;;;;2.38;100.00;95212.06;5114663;28;1536;-59
2023/12/25 00:12:23;;;;;;;;;;;;;;;2.45;100.00;95205.41;5114509;28;1639;-58
2023/12/25 00:15:09;;;;;;;;;;;;;;;2.44;99.96;95218.69;5114648;28;2044;-59
2023/12/25 00:17:54;;;;;;;;;;;;;;;2.49;99.73;95227.97;5114547;28;1670;-59
2023/12/25 00:20:41;;;;;;;;;;;;;;;2.07;99.67;95221.31;5114069;28;1994;-58
2023/12/25 00:23:26;;;;;;;;;;;;;;;2.11;100.00;95220.16;5114270;28;1693;-58
2023/12/25 00:26:12;;;;;;;;;;;;;;;2.31;100.00;95224.00;5114319;28;1747;-58
2023/12/25 00:28:57;;;;;;;;;;;;;;;2.19;99.47;95222.25;5114007;28;2165;-59
2023/12/25 00:31:42;;;;;;;;;;;;;;;2.21;99.93;95218.53;5114261;28;1730;-59
2023/12/25 00:34:28;;;;;;;;;;;;;;;2.29;100.00;95210.91;5113870;28;1685;-59
2023/12/25 00:37:13;;;;;;;;;;;;;;;2.21;100.00;95209.78;5113824;28;2082;-59
2023/12/25 00:39:59;;;;;;;;;;;;;;;2.33;99.33;95219.47;5113919;28;1994;-59
2023/12/25 00:42:44;;;;;;;;;;;;;;;2.20;99.24;95213.38;5114145;28;2155;-59
2023/12/25 00:45:29;;;;;;;;;;;;;;;2.08;100.00;95210.66;5114020;28;1543;-58
2023/12/25 00:48:15;;;;;;;;;;;;;;;2.14;100.00;95212.00;5113913;28;1513;-59
2023/12/25 00:51:00;;;;;;;;;;;;;;;2.23;100.00;95211.34;5114078;28;1674;-59
2023/12/25 00:53:46;;;;;;;;;;;;;;;2.24;100.00;95207.78;5114003;28;1650;-57
2023/12/25 00:56:31;;;;;;;;;;;;;;;1.99;100.00;95205.19;5113604;28;2228;-59
2023/12/25 00:59:16;;;;;;;;;;;;;;;1.92;100.00;95204.78;5113297;28;1914;-59
2023/12/25 01:02:02;;;;;;;;;;;;;;;1.99;100.00;95205.19;5113579;28;1537;-58
2023/12/25 01:04:47;;;;;;;;;;;;;;;2.06;100.00;95204.63;5113551;28;1571;-58
2023/12/25 01:07:32;;;;;;;;;;;;;;;1.99;100.00;95198.09;5113460;28;1719;-59
2023/12/25 01:10:18;;;;;;;;;;;;;;;2.12;100.00;95209.47;5113451;28;1545;-58
2023/12/25 01:13:03;;;;;;;;;;;;;;;2.12;100.00;95201.56;5113780;28;2480;-59
2023/12/25 01:15:49;;;;;;;;;;;;;;;2.11;100.00;95191.97;5113520;28;1602;-58
2023/12/25 01:18:34;;;;;;;;;;;;;;;2.12;100.00;95200.72;5113325;28;1910;-57
2023/12/25 01:21:19;;;;;;;;;;;;;;;2.13;100.00;95189.22;5113272;28;1532;-58
2023/12/25 01:24:05;;;;;;;;;;;;;;;2.03;100.00;95190.81;5113633;28;1560;-59
2023/12/25 01:26:50;;;;;;;;;;;;;;;2.16;100.00;95194.28;5113651;28;1528;-59
2023/12/25 01:29:36;;;;;;;;;;;;;;;2.20;99.89;95202.81;5113676;28;1516;-58
2023/12/25 01:32:21;;;;;;;;;;;;;;;2.22;100.00;95187.72;5113475;28;1528;-58
2023/12/25 01:35:07;;;;;;;;;;;;;;;1.85;100.00;95203.50;5113591;28;1663;-59
2023/12/25 01:37:52;;;;;;;;;;;;;;;1.82;100.00;95195.81;5113290;28;2225;-58
2023/12/25 01:40:39;;;;;;;;;;;;;;;1.85;100.00;95200.88;5113170;28;1986;-59
2023/12/25 01:43:25;;;;;;;;;;;;;;;1.97;100.00;95192.09;5113441;28;1678;-58
2023/12/25 01:46:11;;;;;;;;;;;;;;;1.80;100.00;95189.78;5113404;28;2143;-58
2023/12/25 01:48:57;;;;;;;;;;;;;;;2.02;100.00;95189.97;5113116;28;1679;-59
2023/12/25 01:51:42;;;;;;;;;;;;;;;2.06;100.00;95194.09;5113152;28;1741;-59
2023/12/25 01:54:27;;;;;;;;;;;;;;;2.21;100.00;95192.16;5113325;28;1620;-58
2023/12/25 01:57:13;;;;;;;;;;;;;;;2.04;99.75;95179.34;5113326;28;2173;-59
2023/12/25 01:59:58;;;;;;;;;;;;;;;1.67;99.69;95179.25;5112883;28;1917;-58
2023/12/25 02:02:44;;;;;;;;;;;;;;;1.70;100.00;95179.88;5113352;28;1691;-58
2023/12/25 02:05:29;;;;;;;;;;;;;;;1.87;100.00;95172.59;5092615;28;1733;-59
2023/12/25 02:08:16;;;;;;;;;;;;;;;2.00;100.00;95177.88;5095979;28;1535;-58
2023/12/25 02:11:02;;;;;;;;;;;;;;;1.60;100.00;95167.47;5096314;28;1598;-58
2023/12/25 02:13:48;;;;;;;;;;;;;;;1.58;100.00;95179.91;5096604;28;2027;-58
2023/12/25 02:16:35;;;;;;;;;;;;;;;1.75;100.00;95180.41;5096131;28;1698;-59
2023/12/25 02:19:34;;;;;;;;;;;;;;;1.80;100.00;95177.44;5096530;28;1906;-58
2023/12/25 02:22:20;;;;;;;;;;;;;;;1.54;98.88;95187.19;5096238;28;1555;-59
2023/12/25 02:25:12;;;;;;;;;;;;;;;1.60;100.00;95183.28;5096355;28;2195;-58
2023/12/25 02:27:58;;;;;;;;;;;;;;;1.71;100.00;95196.56;5096277;28;2242;-59
2023/12/25 02:30:44;;;;;;;;;;;;;;;1.44;100.00;95194.88;5094900;28;1689;-58
2023/12/25 02:33:30;;;;;;;;;;;;;;;1.63;100.00;95194.47;5095819;28;2205;-59
2023/12/25 02:36:15;;;;;;;;;;;;;;;1.56;100.00;95207.19;5096008;28;1508;-59
2023/12/25 02:39:01;;;;;;;;;;;;;;;1.75;100.00;95193.59;5095684;28;2043;-58
2023/12/25 02:41:46;;;;;;;;;;;;;;;1.79;100.00;95217.13;5095788;28;2835;-59
2023/12/25 02:44:31;;;;;;;;;;;;;;;1.70;100.00;95208.88;5096187;28;1655;-58
2023/12/25 02:47:17;;;;;;;;;;;;;;;1.54;100.00;95219.66;5095813;28;1713;-58
2023/12/25 02:50:02;;;;;;;;;;;;;;;1.66;100.00;95210.06;5095921;28;1662;-59
2023/12/25 02:52:48;;;;;;;;;;;;;;;1.59;100.00;95219.31;5095843;28;1504;-59
2023/12/25 02:55:33;;;;;;;;;;;;;;;1.61;100.00;95204.25;5095710;28;1551;-58
2023/12/25 02:58:19;;;;;;;;;;;;;;;1.42;100.00;95214.34;5095604;28;1671;-59
2023/12/25 03:01:04;;;;;;;;;;;;;;;1.45;100.00;95196.56;5095656;28;1571;-58
2023/12/25 03:03:49;;;;;;;;;;;;;;;1.29;100.00;95209.94;5104507;28;1669;-59
2023/12/25 03:06:35;;;;;;;;;;;;;;;1.59;100.00;95219.31;5115925;28;1682;-59
2023/12/25 03:09:20;;;;;;;;;;;;;;;1.80;100.00;95219.63;5114419;28;1910;-59
2023/12/25 03:12:06;;;;;;;;;;;;;;;1.62;100.00;95213.84;5115806;28;1533;-59
2023/12/25 03:14:51;;;;;;;;;;;;;;;1.90;100.00;95228.59;5115733;28;1678;-58
2023/12/25 03:17:37;;;;;;;;;;;;;;;1.79;100.00;95210.06;5115390;28;1560;-58
2023/12/25 03:20:22;;;;;;;;;;;;;;;1.76;100.00;95226.06;5115294;28;1540;-59
2023/12/25 03:23:08;;;;;;;;;;;;;;;1.56;100.00;95219.56;5115562;28;2215;-59
2023/12/25 03:25:53;;;;;;;;;;;;;;;1.55;100.00;95225.75;5115584;28;1666;-59
2023/12/25 03:28:39;;;;;;;;;;;;;;;1.59;100.00;95229.84;5115113;28;2006;-59
2023/12/25 03:31:24;;;;;;;;;;;;;;;1.72;100.00;95235.97;5114986;28;1674;-58
2023/12/25 03:34:15;;;;;;;;;;;;;;;1.55;100.00;95228.38;5115047;28;1576;-59
2023/12/25 03:37:02;;;;;;;;;;;;;;;1.49;100.00;95234.09;5115337;28;1560;-58
2023/12/25 03:39:48;;;;;;;;;;;;;;;1.40;100.00;95245.25;5115221;28;1596;-58
2023/12/25 03:42:33;;;;;;;;;;;;;;;1.11;100.00;95242.75;5115148;28;1675;-58
2023/12/25 03:45:18;;;;;;;;;;;;;;;0.82;100.00;95242.88;5114754;28;1698;-59
2023/12/25 03:48:04;;;;;;;;;;;;;;;0.80;100.00;95243.91;5115074;28;1552;-59
2023/12/25 03:50:49;;;;;;;;;;;;;;;0.77;100.00;95255.50;5114751;28;1905;-59
2023/12/25 03:53:35;;;;;;;;;;;;;;;0.72;100.00;95252.28;5115367;28;1525;-58
2023/12/25 03:56:22;;;;;;;;;;;;;;;0.85;100.00;95250.56;5114589;28;1556;-59
2023/12/25 03:59:10;;;;;;;;;;;;;;;1.02;100.00;95248.63;5114423;28;1574;-59
2023/12/25 04:01:56;;;;;;;;;;;;;;;1.23;100.00;95239.28;5114926;28;1741;-59
2023/12/25 04:04:41;;;;;;;;;;;;;;;1.20;100.00;95239.53;5114498;28;1509;-58
2023/12/25 04:07:27;;;;;;;;;;;;;;;1.07;100.00;95228.94;5114700;28;1642;-58
2023/12/25 04:10:12;;;;;;;;;;;;;;;1.03;100.00;95237.16;5114262;28;1909;-58
2023/12/25 04:12:58;;;;;;;;;;;;;;;1.10;100.00;95238.41;5114643;28;1630;-58
2023/12/25 04:15:43;;;;;;;;;;;;;;;1.04;100.00;95238.84;5114643;28;1516;-58
2023/12/25 04:18:28;;;;;;;;;;;;;;;1.21;100.00;95245.63;5114167;28;1560;-59
2023/12/25 04:21:20;;;;;;;;;;;;;;;1.36;100.00;95257.78;5114439;28;2033;-58
2023/12/25 04:24:07;;;;;;;;;;;;;;;1.17;99.87;95243.19;5114470;28;1504;-58
2023/12/25 04:26:53;;;;;;;;;;;;;;;1.06;99.81;95242.22;5114451;28;1516;-59
2023/12/25 04:29:38;;;;;;;;;;;;;;;1.05;100.00;95251.06;5113587;28;1913;-58
2023/12/25 04:32:23;;;;;;;;;;;;;;;0.90;100.00;95263.44;5114263;28;1528;-58
2023/12/25 04:35:09;;;;;;;;;;;;;;;1.05;100.00;95270.34;5114263;28;1673;-58
2023/12/25 04:37:54;;;;;;;;;;;;;;;1.31;99.77;95286.19;5114566;28;2191;-58
2023/12/25 04:40:40;;;;;;;;;;;;;;;1.38;99.59;95294.56;5114177;28;1520;-58
2023/12/25 04:43:25;;;;;;;;;;;;;;;1.44;99.76;95275.69;5114080;28;1671;-58
2023/12/25 04:46:10;;;;;;;;;;;;;;;1.39;98.46;95283.09;5114073;28;1527;-57
2023/12/25 04:48:56;;;;;;;;;;;;;;;1.03;97.81;95284.56;5113945;28;1991;-58
2023/12/25 04:51:41;;;;;;;;;;;;;;;0.78;100.00;95275.63;5113992;28;1528;-58
2023/12/25 04:54:27;;;;;;;;;;;;;;;0.70;100.00;95285.78;5113698;28;1544;-58
2023/12/25 04:57:12;;;;;;;;;;;;;;;1.10;100.00;95275.28;5113513;28;1691;-59
2023/12/25 04:59:57;;;;;;;;;;;;;;;1.37;100.00;95272.66;5113588;28;1671;-58
2023/12/25 05:02:43;;;;;;;;;;;;;;;1.44;100.00;95276.56;5113987;28;1662;-59
2023/12/25 05:05:28;;;;;;;;;;;;;;;1.52;100.00;95276.03;5093398;28;1730;-58
2023/12/25 05:08:14;;;;;;;;;;;;;;;1.28;98.59;95267.97;5093434;28;1552;-59
2023/12/25 05:10:59;;;;;;;;;;;;;;;1.22;98.96;95274.50;5093128;28;2351;-59
2023/12/25 05:13:45;;;;;;;;;;;;;;;1.22;98.94;95277.13;5093100;28;1755;-59
2023/12/25 05:16:30;;;;;;;;;;;;;;;1.06;99.99;95276.44;5093035;28;1540;-58
2023/12/25 05:19:15;;;;;;;;;;;;;;;0.95;100.00;95283.25;5093301;28;1687;-58
2023/12/25 05:22:03;;;;;;;;;;;;;;;0.79;100.00;95285.19;5093370;28;2170;-58
2023/12/25 05:24:49;;;;;;;;;;;;;;;0.60;100.00;95279.41;5093380;28;1694;-59
2023/12/25 05:27:34;;;;;;;;;;;;;;;0.78;100.00;95272.97;5093273;28;2054;-58
2023/12/25 05:30:19;;;;;;;;;;;;;;;0.66;98.01;95273.75;5092944;28;1913;-59
2023/12/25 05:33:05;;;;;;;;;;;;;;;0.64;99.58;95286.16;5093271;28;1521;-59
2023/12/25 05:35:50;;;;;;;;;;;;;;;0.89;100.00;95285.44;5093213;28;1537;-58
2023/12/25 05:38:35;;;;;;;;;;;;;;;0.91;100.00;95296.72;5093232;28;1545;-58
2023/12/25 05:41:21;;;;;;;;;;;;;;;0.63;98.06;95318.69;5093542;28;1682;-56
2023/12/25 05:44:06;;;;;;;;;;;;;;;0.70;99.79;95319.97;5097211;28;1549;-56
2023/12/25 05:46:52;;;;;;;;;;;;;;;0.57;99.22;95317.31;5097256;28;1545;-56
2023/12/25 05:49:38;;;;;;;;;;;;;;;0.39;100.00;95314.03;5104507;28;1901;-56
2023/12/25 05:52:23;;;;;;;;;;;;;;;0.62;100.00;95302.03;5116127;28;1706;-57
2023/12/25 05:55:09;;;;;;;;;;;;;;;0.86;100.00;95297.00;5117039;28;2165;-56
2023/12/25 05:57:54;;;;;;;;;;;;;;;0.84;100.00;95280.47;5117126;28;1672;-56
2023/12/25 06:00:40;;;;;;;;;;;;;;;1.04;100.00;95288.88;5116813;28;2355;-57
2023/12/25 06:03:26;;;;;;;;;;;;;;;1.16;100.00;95296.81;5117058;28;1535;-57
2023/12/25 06:06:12;;;;;;;;;;;;;;;0.69;100.00;95300.72;5116703;28;1678;-56
2023/12/25 06:08:57;;;;;;;;;;;;;;;0.71;100.00;95290.09;5116991;28;2100;-57
2023/12/25 06:11:43;;;;;;;;;;;;;;;0.97;100.00;95286.63;5116732;28;2241;-57
2023/12/25 06:14:28;;;;;;;;;;;;;;;1.12;99.40;95294.47;5117362;28;1658;-56
2023/12/25 06:17:14;;;;;;;;;;;;;;;1.07;99.63;95315.00;5116598;28;2070;-57
2023/12/25 06:19:59;;;;;;;;;;;;;;;0.99;99.96;95323.41;5115852;28;1521;-58
2023/12/25 06:22:44;;;;;;;;;;;;;;;0.95;99.85;95325.38;5116914;28;1552;-59
2023/12/25 06:25:30;;;;;;;;;;;;;;;0.98;100.00;95329.59;5116627;28;1652;-58
2023/12/25 06:28:15;;;;;;;;;;;;;;;1.33;99.30;95318.59;5116305;28;1682;-57
2023/12/25 06:31:01;;;;;;;;;;;;;;;0.93;99.32;95319.38;5116324;28;1995;-57
2023/12/25 06:33:46;;;;;;;;;;;;;;;1.09;100.00;95326.28;5116554;28;1525;-58
2023/12/25 06:36:32;;;;;;;;;;;;;;;1.56;99.57;95328.44;5116155;28;2303;-57
2023/12/25 06:39:17;;;;;;;;;;;;;;;2.92;93.66;95332.28;5116167;28;2213;-57
2023/12/25 06:42:03;;;;;;;;;;;;;;;4.74;84.02;95351.28;5116455;28;2039;-59
2023/12/25 06:44:48;;;;;;;;;;;;;;;6.89;73.44;95343.31;5116439;28;1718;-58
2023/12/25 06:47:34;;;;;;;;;;;;;;;8.48;65.64;95353.88;5116252;28;1556;-59
2023/12/25 06:50:20;;;;;;;;;;;;;;;8.83;59.31;95349.72;5115965;28;1902;-58
2023/12/25 06:53:07;;;;;;;;;;;;;;;8.89;58.96;95342.94;5114865;28;2190;-59
2023/12/25 06:55:52;;;;;;;;;;;;;;;9.79;56.13;95354.72;5116263;27;2209;-59
2023/12/25 06:58:38;;;;;;;;;;;;;;;10.35;54.37;95361.56;5115934;28;1536;-59
2023/12/25 07:01:23;;;;;;;;;;;;;;;10.74;52.98;95366.56;5115830;28;2063;-58
2023/12/25 07:04:11;;;;;;;;;;;;;;;9.81;54.04;95363.41;5115630;28;1690;-56
2023/12/25 07:06:56;;;;;;;;;;;;;;;7.46;59.95;95340.13;5115922;27;1590;-57
2023/12/25 07:09:43;;;;;;;;;;;;;;;8.09;60.28;95337.06;5115307;28;1994;-57
2023/12/25 07:12:28;;;;;;;;;;;;;;;8.63;58.46;95346.25;5114809;28;2034;-57
2023/12/25 07:15:14;;;;;;;;;;;;;;;8.91;59.39;95333.81;5112732;28;1681;-57
2023/12/25 07:17:59;;;;;;;;;;;;;;;9.76;56.36;95342.47;5113249;28;2303;-56
2023/12/25 07:20:45;;;;;;;;;;;;;;;10.09;55.00;95345.47;5113025;28;1749;-57
2023/12/25 07:23:30;;;;;;;;;;;;;;;10.35;55.13;95347.38;5114896;28;1572;-57
2023/12/25 07:26:19;;;;;;;;;;;;;;;9.15;58.51;95340.47;5112809;28;2319;-57
2023/12/25 07:29:04;;;;;;;;;;;;;;;7.65;66.77;95323.34;5114035;28;2001;-57
2023/12/25 07:31:50;;;;;;;;;;;;;;;6.57;72.19;95319.53;5114562;28;2181;-57
2023/12/25 07:34:35;;;;;;;;;;;;;;;5.57;77.91;95339.34;5112666;28;1603;-57
2023/12/25 07:37:21;;;;;;;;;;;;;;;4.17;82.62;95336.31;5113478;28;1604;-57
2023/12/25 07:40:07;;;;;;;;;;;;;;;3.67;85.24;95339.19;5114208;28;1623;-56
2023/12/25 07:42:52;;;;;;;;;;;;;;;3.44;86.71;95340.91;5112195;28;1595;-57
2023/12/25 07:45:38;;;;;;;;;;;;;;;3.54;86.83;95344.53;5112784;28;2113;-56
2023/12/25 07:48:23;;;;;;;;;;;;;;;3.64;87.27;95365.84;5113549;28;1595;-57
2023/12/25 07:51:09;;;;;;;;;;;;;;;3.60;87.89;95359.94;5114046;28;1910;-57
2023/12/25 07:53:54;;;;;;;;;;;;;;;3.75;87.71;95359.75;5112220;28;1584;-57
2023/12/25 07:56:39;;;;;;;;;;;;;;;3.72;88.58;95363.50;5112753;28;1709;-57
2023/12/25 07:59:25;;;;;;;;;;;;;;;3.66;89.25;95351.56;5112252;28;1573;-57
2023/12/25 08:02:10;;;;;;;;;;;;;;;4.16;87.19;95348.72;5113848;28;1561;-57
2023/12/25 08:04:56;;;;;;;;;;;;;;;4.47;86.57;95364.88;5111528;28;1719;-57
2023/12/25 08:07:41;;;;;;;;;;;;;;;4.58;87.17;95358.75;5112832;28;1583;-57
2023/12/25 08:10:27;;;;;;;;;;;;;;;4.69;88.53;95358.75;5113256;28;1910;-57
2023/12/25 08:13:19;;;;;;;;;;;;;;;4.79;90.99;95358.88;5110517;28;1727;-57
2023/12/25 08:15:45;;;;;;;;;;;;;;;5.03;89.36;95358.75;5114027;28;1317;-56
2023/12/25 08:18:11;;;;;;;;;;;;;;;5.19;89.32;95372.44;5113804;28;1291;-57
2023/12/25 08:20:37;;;;;;;;;;;;;;;5.12;89.74;95381.84;5114071;28;1216;-57
2023/12/25 08:23:03;;;;;;;;;;;;;;;4.89;92.18;95379.25;5114036;28;1236;-56
2023/12/25 08:25:29;;;;;;;;;;;;;;;4.82;93.02;95387.78;5113554;28;1236;-56
2023/12/25 08:27:55;;;;;;;;;;;;;;;4.74;94.50;95376.94;5113960;28;1247;-57
2023/12/25 08:30:21;;;;;;;;;;;;;;;4.69;94.39;95369.34;5113542;28;1994;-57
2023/12/25 08:32:47;;;;;;;;;;;;;;;4.87;92.71;95369.72;5113812;28;1240;-57
2023/12/25 08:35:14;;;;;;;;;;;;;;;5.06;92.23;95363.78;5113655;28;1311;-56
2023/12/25 08:37:40;;;;;;;;;;;;;;;5.27;89.68;95375.34;5113636;28;1224;-57
2023/12/25 08:40:06;;;;;;;;;;;;;;;5.38;91.67;95370.97;5113729;27;1315;-57
2023/12/25 08:42:32;;;;;;;;;;;;;;;5.33;92.59;95367.84;5110724;28;1344;-57
2023/12/25 08:44:58;;;;;;;;;;;;;;;5.35;92.88;95360.59;5113717;28;1141;-57
2023/12/25 08:47:25;;;;;;;;;;;;;;;5.18;92.54;95367.25;5113670;28;1279;-57
2023/12/25 08:49:51;;;;;;;;;;;;;;;5.03;91.93;95361.41;5112138;28;3938;-56
2023/12/25 08:52:17;;;;;;;;;;;;;;;5.24;90.69;95349.06;5113349;28;1283;-56
2023/12/25 08:54:43;;;;;;;;;;;;;;;5.17;90.74;95344.38;5113200;28;1303;-57
2023/12/25 08:57:09;;;;;;;;;;;;;;;5.41;90.03;95352.19;5113456;28;1224;-57
2023/12/25 08:59:36;;;;;;;;;;;;;;;5.28;90.86;95366.41;5113115;28;1244;-57
2023/12/25 09:02:02;;;;;;;;;;;;;;;5.18;91.38;95354.00;5113437;28;1228;-58
2023/12/25 09:04:28;;;;;;;;;;;;;;;4.98;91.72;95359.09;5113641;28;1173;-58
2023/12/25 09:06:54;;;;;;;;;;;;;;;5.01;91.81;95366.00;5113956;28;1055;-58
2023/12/25 09:09:21;;;;;;;;;;;;;;;5.25;90.51;95355.22;5113198;28;1913;-57
2023/12/25 09:11:48;;;;;;;;;;;;;;;5.58;88.68;95354.28;5110388;28;1208;-56
2023/12/25 09:14:14;;;;;;;;;;;;;;;5.81;88.45;95352.41;5113788;28;1055;-58
2023/12/25 09:16:40;;;;;;;;;;;;;;;5.89;88.22;95342.97;5116420;28;1087;-56
2023/12/25 09:19:06;;;;;;;;;;;;;;;6.33;86.11;95341.88;5117787;28;1106;-57
2023/12/25 09:21:38;;;;;;;;;;;;;;;6.53;85.13;95337.53;5117717;28;1036;-57
2023/12/25 09:24:04;;;;;;;;;;;;;;;7.08;83.16;95342.53;5118043;28;1058;-58
2023/12/25 09:26:30;;;;;;;;;;;;;;;7.00;84.60;95326.41;5116979;27;6500;-57
2023/12/25 09:28:57;;;;;;;;;;;;;;;7.19;85.00;95321.16;5117479;28;1992;-57
2023/12/25 09:31:23;;;;;;;;;;;;;;;7.48;84.07;95311.56;5117608;28;1126;-57
2023/12/25 09:33:49;;;;;;;;;;;;;;;8.04;81.76;95313.50;5117431;28;1032;-57
2023/12/25 09:36:15;;;;;;;;;;;;;;;8.65;79.38;95307.00;5116417;28;913;-57
2023/12/25 09:38:41;;;;;;;;;;;;;;;8.84;79.11;95295.41;5117578;28;995;-57
2023/12/25 09:41:10;;;;;;;;;;;;;;;9.15;78.06;95303.94;5117464;28;1102;-57
2023/12/25 09:43:41;;;;;;;;;;;;;;;9.47;76.78;95297.31;5117257;28;1024;-57
2023/12/25 09:46:10;;;;;;;;;;;;;;;9.61;76.41;95289.75;5117493;28;1011;-58
2023/12/25 09:48:38;;;;;;;;;;;;;;;9.83;75.57;95289.31;5117462;28;990;-58
2023/12/25 09:51:08;;;;;;;;;;;;;;;9.99;74.02;95285.09;5117135;28;1980;-57
2023/12/25 09:53:34;;;;;;;;;;;;;;;9.77;75.19;95288.09;5117464;28;925;-58
2023/12/25 09:56:03;;;;;;;;;;;;;;;10.05;74.59;95289.81;5117082;28;1095;-57
2023/12/25 09:58:29;;;;;;;;;;;;;;;10.37;73.23;95278.56;5116832;28;1084;-58
2023/12/25 10:00:55;;;;;;;;;;;;;;;10.46;72.23;95279.47;5117381;28;1067;-58
2023/12/25 10:03:23;;;;;;;;;;;;;;;10.44;71.93;95286.81;5117200;28;1165;-57
2023/12/25 10:05:49;;;;;;;;;;;;;;;10.65;72.35;95286.44;5116852;28;917;-58
2023/12/25 10:08:15;;;;;;;;;;;;;;;10.96;70.98;95286.75;5116878;28;1044;-57
2023/12/25 10:10:42;;;;;;;;;;;;;;;10.92;70.24;95283.56;5116941;28;1997;-58
2023/12/25 10:13:10;;;;;;;;;;;;;;;11.11;68.43;95269.09;5117079;27;1063;-58
2023/12/25 10:15:36;;;;;;;;;;;;;;;11.35;68.12;95266.69;5116991;28;1537;-57
2023/12/25 10:18:03;;;;;;;;;;;;;;;11.55;66.62;95269.91;5116856;28;1044;-58
2023/12/25 10:20:29;;;;;;;;;;;;;;;11.62;66.87;95254.84;5116556;28;1044;-58
2023/12/25 10:22:56;;;;;;;;;;;;;;;11.93;65.74;95257.75;5116967;28;980;-58
2023/12/25 10:25:27;;;;;;;;;;;;;;;11.98;64.56;95250.06;5116524;28;992;-57
2023/12/25 10:27:55;;;;;;;;;;;;;;;11.86;64.65;95243.34;5116115;28;1043;-58
2023/12/25 10:30:22;;;;;;;;;;;;;;;12.13;64.51;95244.88;5116494;28;1984;-57
2023/12/25 10:32:49;;;;;;;;;;;;;;;12.44;63.75;95236.13;5116360;28;1028;-56
2023/12/25 10:35:17;;;;;;;;;;;;;;;12.66;63.58;95245.31;5111136;28;3803;-58
2023/12/25 10:37:45;;;;;;;;;;;;;;;12.81;63.41;95246.25;5096022;28;1038;-57
2023/12/25 10:40:20;;;;;;;;;;;;;;;12.85;61.93;95246.75;5095734;28;1040;-58
2023/12/25 10:42:48;;;;;;;;;;;;;;;12.96;61.08;95243.69;5095861;28;1083;-57
2023/12/25 10:45:18;;;;;;;;;;;;;;;12.80;61.82;95239.19;5128364;27;1131;-57
2023/12/25 10:47:45;;;;;;;;;;;;;;;12.45;63.26;95240.47;5095191;28;1076;-57
2023/12/25 10:50:12;;;;;;;;;;;;;;;12.36;64.00;95239.66;5095819;28;1902;-58
2023/12/25 10:52:39;;;;;;;;;;;;;;;12.18;63.75;95242.53;5094924;28;1123;-58
2023/12/25 10:55:06;;;;;;;;;;;;;;;12.26;63.69;95237.16;5095821;28;1049;-58
2023/12/25 10:57:33;;;;;;;;;;;;;;;12.50;62.04;95227.38;5095336;28;1028;-58
2023/12/25 11:00:03;;;;;;;;;;;;;;;12.84;60.97;95226.28;5095221;28;1099;-58
2023/12/25 11:02:34;;;;;;;;;;;;;;;12.93;60.56;95227.94;5095379;28;985;-57
2023/12/25 11:05:00;;;;;;;;;;;;;;;13.08;60.28;95222.66;5113963;28;1337;-57
2023/12/25 11:07:26;;;;;;;;;;;;;;;12.94;59.13;95218.88;5115983;28;1055;-58
2023/12/25 11:09:54;;;;;;;;;;;;;;;12.79;59.58;95212.56;5115875;28;1890;-58
2023/12/25 11:12:20;;;;;;;;;;;;;;;12.85;60.35;95207.31;5115778;28;1054;-57
2023/12/25 11:14:46;;;;;;;;;;;;;;;12.92;60.24;95210.16;5115599;28;1051;-58
2023/12/25 11:17:13;;;;;;;;;;;;;;;13.05;60.07;95213.13;5115608;28;1030;-58
2023/12/25 11:19:39;;;;;;;;;;;;;;;12.84;60.94;95208.34;5115332;28;1051;-58
2023/12/25 11:22:24;;;;;;;;;;;;;;;13.12;61.50;95207.88;5115605;28;1039;-58
2023/12/25 11:24:50;;;;;;;;;;;;;;;13.15;59.81;95207.53;5115463;28;984;-58
2023/12/25 11:27:18;;;;;;;;;;;;;;;13.33;59.91;95201.09;5115311;28;1023;-58
2023/12/25 11:29:44;;;;;;;;;;;;;;;13.40;60.35;95199.38;5115210;27;1981;-58
2023/12/25 11:32:11;;;;;;;;;;;;;;;13.61;60.66;95206.78;5115355;28;1043;-58
2023/12/25 11:34:41;;;;;;;;;;;;;;;13.66;60.00;95209.78;5115049;28;1040;-58
2023/12/25 11:37:23;;;;;;;;;;;;;;;13.60;59.89;95205.97;5115049;28;1024;-57
2023/12/25 11:39:56;;;;;;;;;;;;;;;13.13;59.95;95201.50;5114060;28;980;-57
2023/12/25 11:42:23;;;;;;;;;;;;;;;13.22;60.51;95196.91;5114964;28;1032;-58
2023/12/25 11:44:53;;;;;;;;;;;;;;;13.53;60.18;95201.50;5114811;28;972;-58
2023/12/25 11:47:29;;;;;;;;;;;;;;;13.74;59.96;95195.47;5115431;28;1047;-58
2023/12/25 11:49:55;;;;;;;;;;;;;;;13.85;59.84;95185.13;5114962;28;1905;-58
2023/12/25 11:52:40;;;;;;;;;;;;;;;13.77;60.17;95193.25;5114967;28;976;-58
2023/12/25 11:55:07;;;;;;;;;;;;;;;13.81;61.24;95191.88;5114775;28;1052;-58
2023/12/25 11:57:34;;;;;;;;;;;;;;;13.81;60.96;95186.50;5114905;28;1045;-58
2023/12/25 12:00:00;;;;;;;;;;;;;;;13.66;59.22;95191.00;5114455;28;1183;-58
2023/12/25 12:02:26;;;;;;;;;;;;;;;13.55;60.06;95189.53;5114759;28;1043;-58
2023/12/25 12:04:52;;;;;;;;;;;;;;;13.59;61.10;95180.09;5114602;28;1154;-58
2023/12/25 12:07:18;;;;;;;;;;;;;;;13.64;60.44;95185.78;5114509;28;1062;-58
2023/12/25 12:09:44;;;;;;;;;;;;;;;13.55;60.08;95177.97;5114391;28;1910;-58
2023/12/25 12:12:10;;;;;;;;;;;;;;;13.64;61.33;95182.28;5114313;28;1178;-58
2023/12/25 12:14:37;;;;;;;;;;;;;;;13.56;62.36;95188.50;5114518;28;1042;-58
2023/12/25 12:17:04;;;;;;;;;;;;;;;13.52;63.44;95173.78;5114631;28;968;-58
2023/12/25 12:19:30;;;;;;;;;;;;;;;13.41;63.80;95180.41;5114481;28;1024;-58
2023/12/25 12:21:57;;;;;;;;;;;;;;;13.34;64.37;95176.75;5114361;28;1023;-58
2023/12/25 12:24:24;;;;;;;;;;;;;;;13.05;62.75;95175.56;5114512;28;980;-58
2023/12/25 12:26:50;;;;;;;;;;;;;;;13.10;63.38;95175.00;5114269;28;1055;-58
2023/12/25 12:29:16;;;;;;;;;;;;;;;13.18;63.20;95183.00;5114032;28;1980;-58
2023/12/25 12:31:42;;;;;;;;;;;;;;;13.16;64.01;95174.28;5114196;28;984;-58
2023/12/25 12:34:08;;;;;;;;;;;;;;;13.10;63.68;95177.69;5114150;28;1036;-58
2023/12/25 12:36:34;;;;;;;;;;;;;;;13.10;64.92;95177.69;5113922;28;1038;-58
2023/12/25 12:39:00;;;;;;;;;;;;;;;13.07;66.35;95176.22;5114526;28;1080;-57
2023/12/25 12:41:26;;;;;;;;;;;;;;;13.04;68.22;95179.22;5113838;28;1067;-58
2023/12/25 12:43:59;;;;;;;;;;;;;;;13.01;65.99;95170.69;5113842;28;1052;-58
2023/12/25 12:46:25;;;;;;;;;;;;;;;12.97;66.44;95175.56;5113844;28;1191;-58
2023/12/25 12:48:51;;;;;;;;;;;;;;;12.91;68.74;95172.78;5113993;28;1039;-58
2023/12/25 12:51:17;;;;;;;;;;;;;;;12.82;68.47;95167.41;5113378;28;1910;-58
2023/12/25 12:53:43;;;;;;;;;;;;;;;12.78;64.96;95158.06;5113629;28;1028;-58
2023/12/25 12:56:11;;;;;;;;;;;;;;;12.75;69.07;95157.56;5113711;28;1040;-58
2023/12/25 13:02:37;;;;;;;;;;;;;;;12.52;68.91;95163.72;5113896;28;1059;-57
2023/12/25 13:05:03;;;;;;;;;;;;;;;12.49;68.94;95170.22;5113534;28;1168;-58
2023/12/25 13:07:29;;;;;;;;;;;;;;;12.44;69.88;95175.28;5113636;28;1027;-58
2023/12/25 13:09:56;;;;;;;;;;;;;;;12.42;68.55;95176.47;5113686;28;1988;-58
2023/12/25 13:12:22;;;;;;;;;;;;;;;12.39;68.05;95174.13;5113911;28;1047;-58
2023/12/25 13:14:48;;;;;;;;;;;;;;;12.32;71.38;95173.16;5113331;28;1032;-57
2023/12/25 13:17:14;;;;;;;;;;;;;;;12.20;72.43;95175.31;5113773;28;1027;-57
2023/12/25 13:19:40;;;;;;;;;;;;;;;12.23;72.14;95175.81;5113701;28;1027;-58
2023/12/25 13:22:07;;;;;;;;;;;;;;;12.28;68.96;95178.84;5113657;28;1036;-57
2023/12/25 13:24:33;;;;;;;;;;;;;;;12.29;71.34;95180.53;5113413;28;926;-58
2023/12/25 13:27:03;;;;;;;;;;;;;;;12.30;70.53;95181.34;5113509;28;988;-58
2023/12/25 13:29:29;;;;;;;;;;;;;;;12.27;70.97;95176.31;5114016;28;1905;-57
2023/12/25 13:31:55;;;;;;;;;;;;;;;12.30;68.27;95170.63;5113772;28;980;-58
2023/12/25 13:34:21;;;;;;;;;;;;;;;12.30;71.80;95170.63;5113538;28;1059;-58
2023/12/25 13:36:47;;;;;;;;;;;;;;;12.22;71.77;95176.03;5113559;28;1023;-58
2023/12/25 13:39:13;;;;;;;;;;;;;;;12.19;75.87;95166.47;5113409;28;1000;-58
2023/12/25 13:41:39;;;;;;;;;;;;;;;12.13;75.92;95161.78;5113499;28;1055;-58
2023/12/25 13:44:05;;;;;;;;;;;;;;;12.09;78.84;95158.59;5113172;28;1016;-57
2023/12/25 13:46:32;;;;;;;;;;;;;;;12.10;75.03;95167.47;5113434;28;994;-58
2023/12/25 13:48:58;;;;;;;;;;;;;;;12.07;75.15;95173.19;5113495;28;1000;-58
2023/12/25 13:51:24;;;;;;;;;;;;;;;12.01;74.61;95168.50;5113104;28;1906;-58
2023/12/25 13:53:50;;;;;;;;;;;;;;;11.97;75.96;95176.06;5113105;28;1016;-58
2023/12/25 13:56:16;;;;;;;;;;;;;;;12.00;76.63;95180.22;5113146;28;1035;-58
2023/12/25 13:58:42;;;;;;;;;;;;;;;11.97;75.77;95177.88;5113211;28;1007;-58